Conisbrough, United Kingdom
Current Conditions -  °F | °C
As of 10:20 AM on Thursday 29 Jan 2015 (Local Time) from EGCN Reporting Station
Scattered Clouds Scattered Clouds  
Wind Chill: -4°   Ceiling: Unl
Heat Index:   Visibility: 6mi
Dew Point:   Wind: 13mph
Humidity: 100%   Direction: 220°SW
Pressure: 28.94"   Gusts: NA
Location:  53.48°N, 1.23°W
Report Text: EGCN 291020Z 22011KT 9999 FEW004 SCT025 01/01 Q0980
Loading
Personal Weather Stations






























Interactive Weather Map New forecast layout! Learn more

10-Day Weather Forecast

Advertisements
Track Severe Weather on mobile